createdAt,value
2023-03-08T00:01:13.829Z,100333.56
2023-03-08T00:04:01.275Z,100342.13
2023-03-08T00:06:47.228Z,100341.09
2023-03-08T00:09:34.351Z,100341.09
2023-03-08T00:12:20.175Z,100343.63
2023-03-08T00:15:06.629Z,100342.88
2023-03-08T00:17:52.687Z,100340.16
2023-03-08T00:20:38.561Z,100347.00
2023-03-08T00:23:24.332Z,100343.63
2023-03-08T00:26:11.566Z,100339.44
2023-03-08T00:28:57.488Z,100339.44
2023-03-08T00:31:43.235Z,100335.41
2023-03-08T00:34:29.369Z,100338.78
2023-03-08T00:37:15.126Z,100333.81
2023-03-08T00:40:01.452Z,100327.22
2023-03-08T00:42:48.652Z,100332.44
2023-03-08T00:45:34.489Z,100326.53
2023-03-08T00:48:20.345Z,100327.53
2023-03-08T00:51:06.293Z,100327.72
2023-03-08T00:53:51.946Z,100327.72
2023-03-08T00:56:38.282Z,100332.19
2023-03-08T00:59:25.524Z,100341.59
2023-03-08T01:02:12.236Z,100339.00
2023-03-08T01:04:59.177Z,100332.75
2023-03-08T01:07:45.095Z,100332.66
2023-03-08T01:10:30.945Z,100330.91
2023-03-08T01:13:17.040Z,100328.94
2023-03-08T01:16:04.758Z,100330.56
2023-03-08T01:18:50.663Z,100326.19
2023-03-08T01:21:39.192Z,100321.72
2023-03-08T01:24:25.283Z,100326.47
2023-03-08T01:27:11.014Z,100322.94
2023-03-08T01:29:56.989Z,100314.16
2023-03-08T01:32:44.487Z,100312.31
2023-03-08T01:35:30.279Z,100307.19
2023-03-08T01:38:16.405Z,100303.72
2023-03-08T01:41:02.870Z,100303.91
2023-03-08T01:43:49.154Z,100301.22
2023-03-08T01:46:36.132Z,100290.22
2023-03-08T01:49:31.547Z,100286.78
2023-03-08T01:52:19.905Z,100280.25
2023-03-08T01:55:07.325Z,100273.41
2023-03-08T01:57:54.314Z,100268.38
2023-03-08T02:00:40.497Z,100270.16
2023-03-08T02:03:26.281Z,100267.63
2023-03-08T02:06:13.325Z,100267.81
2023-03-08T02:09:03.365Z,100253.38
2023-03-08T02:11:50.091Z,100251.72
2023-03-08T02:14:36.325Z,100241.59
2023-03-08T02:17:22.302Z,100237.41
2023-03-08T02:20:09.472Z,100242.72
2023-03-08T02:22:56.833Z,100249.72
2023-03-08T02:25:42.769Z,100236.03
2023-03-08T02:28:28.819Z,100242.25
2023-03-08T02:31:15.299Z,100231.00
2023-03-08T02:34:03.174Z,100225.78
2023-03-08T02:36:49.539Z,100230.41
2023-03-08T02:39:38.102Z,100221.06
2023-03-08T02:42:24.314Z,100224.63
2023-03-08T02:45:10.687Z,100221.34
2023-03-08T02:47:57.358Z,100215.31
2023-03-08T02:50:43.693Z,100210.28
2023-03-08T02:53:29.758Z,100206.13
2023-03-08T02:56:17.700Z,100202.97
2023-03-08T02:59:04.233Z,100208.19
2023-03-08T03:01:50.499Z,100206.69
2023-03-08T03:04:36.120Z,100188.63
2023-03-08T03:07:22.010Z,100199.22
2023-03-08T03:10:10.098Z,100191.47
2023-03-08T03:12:57.451Z,100196.03
2023-03-08T03:15:47.320Z,100193.50
2023-03-08T03:18:35.227Z,100193.59
2023-03-08T03:21:21.163Z,100200.31
2023-03-08T03:24:07.117Z,100195.09
2023-03-08T03:27:01.316Z,100193.59
2023-03-08T03:29:52.775Z,100190.16
2023-03-08T03:32:38.615Z,100185.78
2023-03-08T03:35:24.969Z,100187.53
2023-03-08T03:38:11.211Z,100183.19
2023-03-08T03:41:01.201Z,100195.44
2023-03-08T03:43:47.948Z,100190.50
2023-03-08T03:46:35.233Z,100184.69
2023-03-08T03:49:22.903Z,100184.22
2023-03-08T03:52:08.618Z,100176.59
2023-03-08T03:55:01.062Z,100177.69
2023-03-08T03:57:46.913Z,100177.59
2023-03-08T04:00:35.590Z,100178.25
2023-03-08T04:03:35.312Z,100171.56
2023-03-08T04:06:22.724Z,100168.84
2023-03-08T04:09:13.291Z,100178.25
2023-03-08T04:12:02.443Z,100181.97
2023-03-08T04:14:49.043Z,100182.06
2023-03-08T04:17:36.405Z,100179.47
2023-03-08T04:20:24.125Z,100182.91
2023-03-08T04:23:14.553Z,100182.91
2023-03-08T04:26:02.913Z,100178.75
2023-03-08T04:28:49.372Z,100171.13
2023-03-08T04:31:36.870Z,100175.59
2023-03-08T04:34:26.731Z,100172.41
2023-03-08T04:37:14.561Z,100164.88
2023-03-08T04:40:05.446Z,100165.69
2023-03-08T04:42:54.124Z,100171.84
2023-03-08T04:45:45.697Z,100162.50
2023-03-08T04:48:32.524Z,100159.88
2023-03-08T04:51:19.333Z,100153.34
2023-03-08T04:54:07.636Z,100153.34
2023-03-08T04:56:58.065Z,100151.50
2023-03-08T04:59:44.668Z,100154.09
2023-03-08T05:02:33.485Z,100147.56
2023-03-08T05:05:19.395Z,100142.53
2023-03-08T05:08:06.112Z,100147.13
2023-03-08T05:11:00.187Z,100149.00
2023-03-08T05:13:49.138Z,100151.41
2023-03-08T05:16:34.954Z,100153.28
2023-03-08T05:19:22.843Z,100151.59
2023-03-08T05:22:11.079Z,100141.44
2023-03-08T05:25:03.088Z,100134.66
2023-03-08T05:27:50.934Z,100132.22
2023-03-08T05:30:39.691Z,100120.19
2023-03-08T05:33:25.654Z,100111.72
2023-03-08T05:36:12.128Z,100103.00
2023-03-08T05:38:58.380Z,100098.72
2023-03-08T05:41:51.012Z,100095.19
2023-03-08T05:44:44.670Z,100095.28
2023-03-08T05:47:32.191Z,100084.88
2023-03-08T05:50:19.078Z,100079.75
2023-03-08T05:53:08.059Z,100081.50
2023-03-08T05:55:55.540Z,100085.69
2023-03-08T05:58:43.643Z,100085.13
2023-03-08T06:01:32.847Z,100083.53
2023-03-08T06:04:28.161Z,100084.38
2023-03-08T06:07:13.810Z,100076.75
2023-03-08T06:10:05.600Z,100075.91
2023-03-08T06:12:51.490Z,100074.47
2023-03-08T06:15:39.205Z,100077.97
2023-03-08T06:18:27.652Z,100075.38
2023-03-08T06:21:14.289Z,100072.88
2023-03-08T06:24:01.001Z,100076.41
2023-03-08T06:26:47.732Z,100085.03
2023-03-08T06:29:35.766Z,100077.06
2023-03-08T06:32:22.485Z,100078.59
2023-03-08T06:35:10.971Z,100083.63
2023-03-08T06:38:02.686Z,100083.28
2023-03-08T06:40:50.644Z,100104.66
2023-03-08T06:43:36.811Z,100099.16
2023-03-08T06:46:22.810Z,100103.06
2023-03-08T06:49:09.128Z,100105.50
2023-03-08T06:51:58.715Z,100117.19
2023-03-08T06:54:45.844Z,100116.81
2023-03-08T06:57:32.059Z,100125.06
2023-03-08T07:00:18.364Z,100129.91
2023-03-08T07:03:04.508Z,100133.75
2023-03-08T07:05:50.272Z,100135.09
2023-03-08T07:08:37.835Z,100144.97
2023-03-08T07:11:26.517Z,100142.78
2023-03-08T07:14:12.216Z,100135.34
2023-03-08T07:16:57.956Z,100147.13
2023-03-08T07:19:43.756Z,100147.59
2023-03-08T07:22:30.686Z,100145.44
2023-03-08T07:25:18.558Z,100137.94
2023-03-08T07:28:04.612Z,100141.75
2023-03-08T07:30:50.794Z,100140.38
2023-03-08T07:33:37.367Z,100138.03
2023-03-08T07:36:23.111Z,100152.03
2023-03-08T07:39:08.954Z,100147.09
2023-03-08T07:41:56.131Z,100149.03
2023-03-08T07:44:41.951Z,100149.41
2023-03-08T07:47:27.694Z,100157.59
2023-03-08T07:50:13.412Z,100156.28
2023-03-08T07:52:59.795Z,100159.25
2023-03-08T07:55:45.818Z,100162.63
2023-03-08T07:58:33.304Z,100171.66
2023-03-08T08:01:19.135Z,100161.84
2023-03-08T08:04:05.922Z,100163.31
2023-03-08T08:06:51.952Z,100160.50
2023-03-08T08:09:38.245Z,100162.72
2023-03-08T08:12:24.076Z,100150.88
2023-03-08T08:15:11.817Z,100157.09
2023-03-08T08:17:57.923Z,100149.47
2023-03-08T08:20:44.333Z,100139.50
2023-03-08T08:23:30.461Z,100138.88
2023-03-08T08:26:16.857Z,100135.72
2023-03-08T08:29:02.846Z,100127.59
2023-03-08T08:31:52.680Z,100118.41
2023-03-08T08:34:38.485Z,100117.91
2023-03-08T08:37:24.250Z,100099.06
2023-03-08T08:40:12.028Z,100090.50
2023-03-08T08:42:57.852Z,100082.00
2023-03-08T08:45:44.680Z,100070.19
2023-03-08T08:48:32.887Z,100061.63
2023-03-08T08:51:18.793Z,100042.25
2023-03-08T08:54:04.690Z,100034.81
2023-03-08T08:56:50.476Z,100021.09
2023-03-08T08:59:36.418Z,100005.91
2023-03-08T09:02:22.271Z,99990.22
2023-03-08T09:05:09.994Z,99968.22
2023-03-08T09:07:55.775Z,99953.66
2023-03-08T09:10:41.880Z,99936.22
2023-03-08T09:13:28.084Z,99929.91
2023-03-08T09:16:18.345Z,99912.00
2023-03-08T09:19:04.683Z,99890.47
2023-03-08T09:21:51.738Z,99876.59
2023-03-08T09:24:37.479Z,99851.47
2023-03-08T09:27:23.194Z,99835.03
2023-03-08T09:30:10.567Z,99804.59
2023-03-08T09:32:56.480Z,99783.66
2023-03-08T09:35:42.625Z,99762.91
2023-03-08T09:38:29.760Z,99733.59
2023-03-08T09:41:21.528Z,99709.94
2023-03-08T09:44:13.267Z,99673.91
2023-03-08T09:47:00.366Z,99649.75
2023-03-08T09:49:46.486Z,99622.06
2023-03-08T09:52:33.596Z,99596.81
2023-03-08T09:55:26.184Z,99569.13
2023-03-08T09:58:14.759Z,99528.66
2023-03-08T10:01:03.036Z,99492.88
2023-03-08T10:03:59.762Z,99461.22
2023-03-08T10:06:48.386Z,99422.81
2023-03-08T10:09:37.162Z,99397.03
2023-03-08T10:12:29.295Z,99356.88
2023-03-08T10:15:15.933Z,99326.66
2023-03-08T10:18:02.911Z,99298.59
2023-03-08T10:20:49.111Z,99289.50
2023-03-08T10:23:36.333Z,99277.44
2023-03-08T10:26:22.279Z,99256.31
2023-03-08T10:29:09.803Z,99249.16
2023-03-08T10:31:55.524Z,99237.00
2023-03-08T10:34:41.686Z,99234.78
2023-03-08T10:37:30.935Z,99211.19
2023-03-08T10:40:18.704Z,99185.19
2023-03-08T10:43:05.486Z,99155.06
2023-03-08T10:45:59.445Z,99124.38
2023-03-08T10:48:45.474Z,99101.44
2023-03-08T10:51:31.540Z,99073.53
2023-03-08T10:54:17.405Z,99046.84
2023-03-08T10:57:03.224Z,99007.53
2023-03-08T10:59:49.663Z,98989.91
2023-03-08T11:02:37.002Z,98966.00
2023-03-08T11:05:23.566Z,98953.31
2023-03-08T11:08:17.565Z,98946.50
2023-03-08T11:11:07.958Z,98927.88
2023-03-08T11:13:54.195Z,98923.00
2023-03-08T11:16:46.318Z,98903.59
2023-03-08T11:19:36.188Z,98897.88
2023-03-08T11:22:25.408Z,98899.56
2023-03-08T11:25:15.901Z,98900.13
2023-03-08T11:28:04.997Z,98897.91
2023-03-08T11:30:53.985Z,98883.09
2023-03-08T11:33:52.802Z,98881.88
2023-03-08T11:36:41.621Z,98874.94
2023-03-08T11:39:29.622Z,98861.16
2023-03-08T11:42:18.441Z,98857.53
2023-03-08T11:45:07.730Z,98859.66
2023-03-08T11:48:08.471Z,98851.19
2023-03-08T11:50:54.713Z,98846.22
2023-03-08T11:53:45.957Z,98847.25
2023-03-08T11:56:36.194Z,98852.00
2023-03-08T11:59:24.897Z,98843.53
2023-03-08T12:02:13.746Z,98836.13
2023-03-08T12:05:01.581Z,98838.47
2023-03-08T12:07:48.596Z,98841.19
2023-03-08T12:10:38.252Z,98839.22
2023-03-08T12:13:25.184Z,98827.41
2023-03-08T12:16:12.393Z,98838.59
2023-03-08T12:18:59.596Z,98832.69
2023-03-08T12:21:46.425Z,98839.78
2023-03-08T12:24:35.482Z,98836.44
2023-03-08T12:27:23.927Z,98847.44
2023-03-08T12:30:14.892Z,98850.38
2023-03-08T12:33:02.383Z,98857.88
2023-03-08T12:35:52.503Z,98855.09
2023-03-08T12:38:38.948Z,98854.81
2023-03-08T12:41:25.915Z,98851.25
2023-03-08T12:44:24.714Z,98838.81
2023-03-08T12:47:20.536Z,98839.53
2023-03-08T12:50:08.777Z,98842.91
2023-03-08T12:52:55.996Z,98848.81
2023-03-08T12:55:41.883Z,98854.84
2023-03-08T12:58:27.630Z,98873.38
2023-03-08T13:01:25.624Z,98901.50
2023-03-08T13:04:39.317Z,98918.84
2023-03-08T13:07:27.689Z,98938.91
2023-03-08T13:10:19.974Z,98954.06
2023-03-08T13:13:37.015Z,98956.41
2023-03-08T13:16:32.590Z,98952.50
2023-03-08T13:19:19.611Z,98964.06
2023-03-08T13:22:06.307Z,98974.16
2023-03-08T13:24:54.834Z,98970.34
2023-03-08T13:27:43.792Z,98986.47
2023-03-08T13:30:30.932Z,98983.31
2023-03-08T13:33:19.110Z,98985.38
2023-03-08T13:36:06.013Z,99001.50
2023-03-08T13:38:56.265Z,99022.69
2023-03-08T13:41:42.847Z,99040.75
2023-03-08T13:44:28.973Z,99063.53
2023-03-08T13:47:17.448Z,99073.75
2023-03-08T13:50:04.932Z,99067.41
2023-03-08T13:52:50.894Z,99068.78
2023-03-08T13:55:40.367Z,99072.91
2023-03-08T13:58:28.301Z,99084.78
2023-03-08T14:01:15.789Z,99086.16
2023-03-08T14:04:11.113Z,99100.22
2023-03-08T14:06:59.223Z,99100.09
2023-03-08T14:09:45.320Z,99102.16
2023-03-08T14:12:32.603Z,99100.53
2023-03-08T14:15:18.809Z,99110.31
2023-03-08T14:18:08.170Z,99091.28
2023-03-08T14:21:01.269Z,99097.22
2023-03-08T14:23:49.429Z,99111.44
2023-03-08T14:26:35.941Z,99115.84
2023-03-08T14:29:22.403Z,99115.44
2023-03-08T14:32:24.522Z,99122.59
2023-03-08T14:35:16.721Z,99127.13
2023-03-08T14:38:02.588Z,99123.97
2023-03-08T14:40:50.100Z,99127.41
2023-03-08T14:43:36.310Z,99134.03
2023-03-08T14:46:21.986Z,99136.09
2023-03-08T14:49:19.026Z,99137.50
2023-03-08T14:52:04.745Z,99140.94
2023-03-08T14:54:50.686Z,99157.91
2023-03-08T14:57:37.851Z,99151.00
2023-03-08T15:00:24.143Z,99139.13
2023-03-08T15:03:10.533Z,99120.66
2023-03-08T15:05:56.393Z,99119.25
2023-03-08T15:08:42.182Z,99125.88
2023-03-08T15:11:31.316Z,99119.81
2023-03-08T15:14:18.720Z,99119.53
2023-03-08T15:17:04.516Z,99122.16
2023-03-08T15:19:50.215Z,99138.31
2023-03-08T15:22:36.035Z,99149.16
2023-03-08T15:25:24.167Z,99160.56
2023-03-08T15:28:11.384Z,99174.09
2023-03-08T15:30:58.502Z,99196.59
2023-03-08T15:33:44.078Z,99224.00
2023-03-08T15:36:32.504Z,99240.47
2023-03-08T15:39:18.758Z,99260.69
2023-03-08T15:42:04.656Z,99282.72
2023-03-08T15:44:50.544Z,99302.59
2023-03-08T15:47:38.027Z,99319.09
2023-03-08T15:50:24.026Z,99329.78
2023-03-08T15:53:10.112Z,99340.81
2023-03-08T15:55:56.229Z,99349.38
2023-03-08T15:58:42.298Z,99368.78
2023-03-08T16:01:28.350Z,99384.31
2023-03-08T16:04:15.522Z,99393.81
2023-03-08T16:07:01.319Z,99402.69
2023-03-08T16:09:47.221Z,99416.19
2023-03-08T16:12:32.970Z,99420.06
2023-03-08T16:15:19.319Z,99434.91
2023-03-08T16:18:05.501Z,99444.22
2023-03-08T16:20:52.537Z,99458.13
2023-03-08T16:23:38.392Z,99466.56
2023-03-08T16:26:24.249Z,99467.91
2023-03-08T16:29:10.422Z,99476.50
2023-03-08T16:31:57.945Z,99474.22
2023-03-08T16:34:43.981Z,99478.97
2023-03-08T16:37:31.386Z,99481.72
2023-03-08T16:40:17.020Z,99503.09
2023-03-08T16:43:03.163Z,99500.38
2023-03-08T16:45:55.672Z,99503.81
2023-03-08T16:48:41.646Z,99503.72
2023-03-08T16:51:28.322Z,99509.28
2023-03-08T16:54:15.666Z,99523.91
2023-03-08T16:57:16.512Z,99530.91
2023-03-08T17:00:06.411Z,99536.00
2023-03-08T17:02:52.485Z,99545.75
2023-03-08T17:05:39.662Z,99554.34
2023-03-08T17:08:25.969Z,99566.94
2023-03-08T17:11:16.365Z,99577.72
2023-03-08T17:14:03.124Z,99593.19
2023-03-08T17:16:49.160Z,99597.81
2023-03-08T17:19:35.071Z,99601.72
2023-03-08T17:22:20.997Z,99599.09
2023-03-08T17:25:07.482Z,99612.88
2023-03-08T17:27:54.453Z,99623.59
2023-03-08T17:30:41.230Z,99626.66
2023-03-08T17:33:27.147Z,99636.88
2023-03-08T17:36:13.494Z,99642.94
2023-03-08T17:38:59.356Z,99643.56
2023-03-08T17:41:45.495Z,99656.50
2023-03-08T17:44:32.998Z,99649.19
2023-03-08T17:47:18.700Z,99643.63
2023-03-08T17:50:04.757Z,99651.31
2023-03-08T17:52:50.692Z,99655.03
2023-03-08T17:55:36.445Z,99654.31
2023-03-08T17:58:22.325Z,99644.66
2023-03-08T18:01:10.362Z,99645.63
2023-03-08T18:03:57.545Z,99647.91
2023-03-08T18:06:43.845Z,99640.63
2023-03-08T18:09:29.757Z,99644.91
2023-03-08T18:12:15.898Z,99653.75
2023-03-08T18:15:01.859Z,99653.13
2023-03-08T18:17:50.121Z,99657.81
2023-03-08T18:20:35.847Z,99676.28
2023-03-08T18:23:22.081Z,99664.72
2023-03-08T18:26:10.086Z,99670.56
2023-03-08T18:28:55.888Z,99678.06
2023-03-08T18:31:42.086Z,99680.56
2023-03-08T18:34:29.410Z,99680.06
2023-03-08T18:37:15.358Z,99660.34
2023-03-08T18:40:01.200Z,99666.81
2023-03-08T18:42:46.954Z,99673.72
2023-03-08T18:45:32.602Z,99687.19
2023-03-08T18:48:18.629Z,99686.47
2023-03-08T18:51:06.173Z,99687.13
2023-03-08T18:53:52.019Z,99683.78
2023-03-08T18:56:38.279Z,99692.13
2023-03-08T18:59:24.831Z,99693.28
2023-03-08T19:02:12.017Z,99691.78
2023-03-08T19:04:58.084Z,99695.25
2023-03-08T19:07:46.573Z,99687.91
2023-03-08T19:10:33.313Z,99675.38
2023-03-08T19:13:19.299Z,99669.53
2023-03-08T19:16:06.292Z,99669.19
2023-03-08T19:18:53.718Z,99665.66
2023-03-08T19:21:41.181Z,99677.53
2023-03-08T19:24:28.438Z,99688.22
2023-03-08T19:27:14.178Z,99690.72
2023-03-08T19:30:00.032Z,99680.53
2023-03-08T19:32:45.866Z,99683.66
2023-03-08T19:35:34.865Z,99674.66
2023-03-08T19:38:20.733Z,99681.06
2023-03-08T19:41:10.101Z,99675.50
2023-03-08T19:43:56.126Z,99675.72
2023-03-08T19:46:42.109Z,99676.22
2023-03-08T19:49:29.414Z,99686.06
2023-03-08T19:52:15.645Z,99684.91
2023-03-08T19:55:01.909Z,99684.41
2023-03-08T19:57:49.168Z,99691.41
2023-03-08T20:00:35.593Z,99682.38
2023-03-08T20:03:21.546Z,99691.16
2023-03-08T20:06:07.727Z,99685.59
2023-03-08T20:08:55.391Z,99698.34
2023-03-08T20:11:41.810Z,99695.56
2023-03-08T20:14:29.280Z,99692.59
2023-03-08T20:17:15.051Z,99697.72
2023-03-08T20:20:01.038Z,99702.22
2023-03-08T20:22:46.878Z,99701.50
2023-03-08T20:25:34.587Z,99698.66
2023-03-08T20:28:20.970Z,99719.34
2023-03-08T20:31:11.737Z,99728.69
2023-03-08T20:33:58.043Z,99728.56
2023-03-08T20:36:43.968Z,99726.19
2023-03-08T20:39:29.960Z,99710.28
2023-03-08T20:42:15.667Z,99720.41
2023-03-08T20:45:01.503Z,99706.50
2023-03-08T20:47:48.608Z,99718.13
2023-03-08T20:50:34.462Z,99721.69
2023-03-08T20:53:20.320Z,99731.44
2023-03-08T20:56:06.350Z,99735.00
2023-03-08T20:58:54.551Z,99733.47
2023-03-08T21:01:42.137Z,99706.50
2023-03-08T21:04:29.381Z,99693.84
2023-03-08T21:07:15.280Z,99700.09
2023-03-08T21:10:01.621Z,99693.94
2023-03-08T21:12:47.325Z,99685.00
2023-03-08T21:15:33.064Z,99684.41
2023-03-08T21:18:19.579Z,99702.00
2023-03-08T21:21:07.171Z,99682.16
2023-03-08T21:23:54.321Z,99669.94
2023-03-08T21:26:40.571Z,99687.16
2023-03-08T21:29:28.058Z,99698.44
2023-03-08T21:32:13.766Z,99697.41
2023-03-08T21:34:59.677Z,99674.28
2023-03-08T21:37:46.752Z,99671.94
2023-03-08T21:40:36.036Z,99667.31
2023-03-08T21:43:22.247Z,99654.97
2023-03-08T21:46:08.373Z,99648.53
2023-03-08T21:48:55.275Z,99649.50
2023-03-08T21:51:40.892Z,99648.66
2023-03-08T21:54:28.914Z,99647.97
2023-03-08T21:57:14.875Z,99651.88
2023-03-08T22:00:01.167Z,99657.59
2023-03-08T22:02:58.019Z,99654.97
2023-03-08T22:05:45.168Z,99651.03
2023-03-08T22:08:31.369Z,99655.09
2023-03-08T22:11:18.757Z,99651.50
2023-03-08T22:14:04.916Z,99643.56
2023-03-08T22:16:51.835Z,99633.09
2023-03-08T22:19:38.124Z,99637.88
2023-03-08T22:22:24.612Z,99639.09
2023-03-08T22:25:10.843Z,99635.31
2023-03-08T22:27:58.295Z,99636.16
2023-03-08T22:30:44.177Z,99635.09
2023-03-08T22:33:30.932Z,99630.09
2023-03-08T22:36:17.044Z,99633.66
2023-03-08T22:39:03.473Z,99617.34
2023-03-08T22:41:49.301Z,99613.06
2023-03-08T22:44:36.766Z,99624.28
2023-03-08T22:47:22.691Z,99622.53
2023-03-08T22:50:09.274Z,99608.69
2023-03-08T22:52:55.109Z,99609.44
2023-03-08T22:55:46.650Z,99616.81
2023-03-08T22:58:32.397Z,99609.91
2023-03-08T23:01:20.205Z,99616.34
2023-03-08T23:04:06.855Z,99618.97
2023-03-08T23:06:52.610Z,99620.13
2023-03-08T23:09:38.385Z,99624.88
2023-03-08T23:12:24.251Z,99616.22
2023-03-08T23:15:10.579Z,99625.09
2023-03-08T23:17:57.609Z,99625.47
2023-03-08T23:20:43.522Z,99622.38
2023-03-08T23:23:29.710Z,99622.25
2023-03-08T23:26:16.340Z,99611.75
2023-03-08T23:29:03.337Z,99618.94
2023-03-08T23:31:49.089Z,99613.31
2023-03-08T23:34:36.478Z,99618.81
2023-03-08T23:37:22.391Z,99618.00
2023-03-08T23:40:10.643Z,99629.88
2023-03-08T23:42:56.835Z,99619.75
2023-03-08T23:45:42.727Z,99618.94
2023-03-08T23:48:28.641Z,99619.88
2023-03-08T23:51:16.515Z,99610.88
2023-03-08T23:54:02.791Z,99607.38
2023-03-08T23:56:48.597Z,99609.19
2023-03-08T23:59:34.514Z,99610.16
